createdAt,value
2018-03-02T00:01:56.758Z,60.59
2018-03-02T00:04:25.948Z,60.82
2018-03-02T00:06:55.029Z,60.89
2018-03-02T00:09:24.539Z,60.92
2018-03-02T00:11:53.690Z,60.60
2018-03-02T00:14:22.754Z,60.35
2018-03-02T00:16:52.172Z,60.48
2018-03-02T00:19:21.234Z,60.11
2018-03-02T00:21:50.308Z,60.08
2018-03-02T00:24:19.405Z,59.96
2018-03-02T00:26:48.471Z,59.94
2018-03-02T00:29:18.010Z,59.95
2018-03-02T00:31:47.443Z,60.01
2018-03-02T00:34:16.700Z,60.12
2018-03-02T00:36:46.065Z,60.23
2018-03-02T00:39:15.151Z,60.22
2018-03-02T00:41:44.513Z,60.21
2018-03-02T00:44:13.639Z,60.26
2018-03-02T00:46:42.788Z,60.32
2018-03-02T00:49:11.858Z,60.36
2018-03-02T00:51:41.135Z,60.23
2018-03-02T00:54:10.459Z,60.32
2018-03-02T00:56:39.527Z,60.34
2018-03-02T00:59:09.659Z,60.17
2018-03-02T01:01:38.823Z,60.11
2018-03-02T01:04:07.886Z,60.11
2018-03-02T01:06:36.961Z,60.23
2018-03-02T01:09:06.231Z,60.25
2018-03-02T01:11:35.352Z,60.25
2018-03-02T01:14:04.542Z,60.35
2018-03-02T01:16:34.151Z,60.41
2018-03-02T01:19:03.471Z,60.63
2018-03-02T01:21:32.543Z,60.56
2018-03-02T01:24:01.994Z,60.52
2018-03-02T01:26:31.074Z,60.50
2018-03-02T01:29:01.455Z,60.33
2018-03-02T01:31:30.578Z,60.25
2018-03-02T01:33:59.642Z,60.19
2018-03-02T01:36:29.017Z,60.24
2018-03-02T01:38:58.212Z,60.29
2018-03-02T01:41:27.341Z,60.24
2018-03-02T01:43:56.414Z,60.17
2018-03-02T01:46:26.122Z,60.18
2018-03-02T01:48:55.205Z,60.19
2018-03-02T01:51:37.360Z,60.25
2018-03-02T01:54:06.432Z,60.10
2018-03-02T01:56:36.377Z,60.15
2018-03-02T01:59:05.460Z,60.28
2018-03-02T02:01:34.808Z,60.47
2018-03-02T02:04:03.881Z,60.40
2018-03-02T02:06:32.967Z,60.34
2018-03-02T02:09:02.046Z,60.26
2018-03-02T02:11:31.143Z,60.26
2018-03-02T02:14:00.624Z,60.21
2018-03-02T02:16:30.104Z,60.26
2018-03-02T02:18:59.201Z,60.35
2018-03-02T02:21:28.510Z,60.22
2018-03-02T02:23:57.604Z,60.27
2018-03-02T02:26:26.933Z,60.43
2018-03-02T02:28:56.007Z,60.60
2018-03-02T02:31:25.373Z,60.86
2018-03-02T02:33:54.837Z,60.75
2018-03-02T02:36:24.488Z,60.80
2018-03-02T02:38:53.559Z,61.03
2018-03-02T02:41:22.962Z,60.78
2018-03-02T02:43:52.109Z,60.65
2018-03-02T02:46:22.589Z,60.82
2018-03-02T02:48:52.496Z,60.94
2018-03-02T02:51:21.562Z,60.55
2018-03-02T02:53:50.696Z,60.61
2018-03-02T02:56:20.180Z,60.39
2018-03-02T02:58:49.712Z,60.24
2018-03-02T03:01:19.684Z,60.35
2018-03-02T03:03:48.913Z,60.46
2018-03-02T03:06:18.443Z,60.49
2018-03-02T03:08:47.600Z,60.43
2018-03-02T03:11:16.700Z,60.51
2018-03-02T03:13:46.043Z,60.54
2018-03-02T03:16:15.545Z,60.98
2018-03-02T03:18:45.143Z,61.03
2018-03-02T03:21:14.649Z,61.23
2018-03-02T03:23:44.726Z,60.96
2018-03-02T03:26:15.306Z,60.50
2018-03-02T03:28:45.350Z,60.67
2018-03-02T03:31:14.491Z,60.63
2018-03-02T03:33:43.561Z,60.68
2018-03-02T03:36:12.636Z,60.70
2018-03-02T03:38:42.009Z,60.54
2018-03-02T03:41:11.224Z,60.73
2018-03-02T03:43:40.403Z,60.89
2018-03-02T03:46:09.501Z,61.04
2018-03-02T03:48:38.862Z,60.68
2018-03-02T03:51:07.990Z,60.76
2018-03-02T03:53:38.012Z,60.89
2018-03-02T03:56:07.343Z,60.69
2018-03-02T03:58:36.449Z,60.74
2018-03-02T04:01:09.288Z,60.60
2018-03-02T04:03:39.792Z,60.49
2018-03-02T04:06:09.476Z,60.49
2018-03-02T04:08:38.880Z,60.71
2018-03-02T04:11:08.011Z,60.93
2018-03-02T04:13:37.367Z,61.23
2018-03-02T04:16:06.438Z,61.34
2018-03-02T04:18:36.137Z,61.23
2018-03-02T04:21:06.293Z,61.08
2018-03-02T04:23:35.364Z,61.25
2018-03-02T04:26:04.683Z,60.99
2018-03-02T04:28:33.881Z,60.73
2018-03-02T04:31:03.499Z,60.48
2018-03-02T04:33:32.825Z,60.48
2018-03-02T04:36:02.564Z,60.47
2018-03-02T04:38:31.640Z,60.59
2018-03-02T04:41:00.710Z,60.82
2018-03-02T04:43:29.891Z,60.94
2018-03-02T04:45:59.036Z,60.91
2018-03-02T04:48:28.227Z,60.82
2018-03-02T04:50:57.634Z,60.78
2018-03-02T04:53:26.787Z,60.62
2018-03-02T04:55:55.855Z,60.62
2018-03-02T04:58:25.130Z,60.74
2018-03-02T05:00:54.284Z,60.66
2018-03-02T05:03:23.958Z,60.88
2018-03-02T05:05:53.271Z,60.82
2018-03-02T05:08:22.412Z,60.74
2018-03-02T05:10:51.546Z,60.54
2018-03-02T05:13:20.641Z,60.55
2018-03-02T05:15:49.738Z,60.49
2018-03-02T05:18:19.396Z,60.48
2018-03-02T05:20:48.514Z,60.51
2018-03-02T05:23:17.646Z,60.51
2018-03-02T05:25:46.748Z,60.38
2018-03-02T05:28:15.984Z,60.71
2018-03-02T05:30:45.629Z,60.57
2018-03-02T05:33:14.829Z,60.71
2018-03-02T06:19:52.002Z,38.61
2018-03-02T06:22:21.099Z,39.72
2018-03-02T06:24:50.704Z,38.71
2018-03-02T06:27:19.913Z,39.05
2018-03-02T06:29:49.021Z,39.15
2018-03-02T06:32:18.300Z,38.68
2018-03-02T06:34:47.551Z,26.98
2018-03-02T06:37:16.638Z,31.29
2018-03-02T06:39:45.816Z,36.00
2018-03-02T06:42:15.265Z,39.25
2018-03-02T06:44:44.891Z,42.98
2018-03-02T06:47:14.608Z,43.24
2018-03-02T06:49:43.737Z,40.28
2018-03-02T06:52:12.819Z,37.56
2018-03-02T06:54:42.378Z,37.78
2018-03-02T06:57:11.703Z,39.62
2018-03-02T06:59:41.571Z,41.89
2018-03-02T07:02:11.287Z,43.09
2018-03-02T07:04:40.928Z,43.87
2018-03-02T07:07:11.199Z,44.52
2018-03-02T07:09:40.603Z,45.43
2018-03-02T07:12:10.621Z,46.26
2018-03-02T07:14:39.998Z,47.36
2018-03-02T07:17:09.087Z,47.84
2018-03-02T07:19:38.167Z,47.75
2018-03-02T07:22:07.588Z,48.44
2018-03-02T07:24:37.829Z,48.99
2018-03-02T07:27:06.914Z,48.76
2018-03-02T07:29:35.992Z,49.05
2018-03-02T07:32:05.073Z,49.33
2018-03-02T07:34:34.187Z,49.94
2018-03-02T07:37:03.639Z,50.88
2018-03-02T07:39:34.164Z,50.87
2018-03-02T07:42:03.882Z,51.10
2018-03-02T07:44:33.540Z,51.39
2018-03-02T07:47:03.745Z,50.90
2018-03-02T07:49:33.391Z,51.88
2018-03-02T07:52:02.655Z,51.42
2018-03-02T07:54:31.985Z,51.29
2018-03-02T07:57:02.486Z,50.87
2018-03-02T07:59:31.563Z,51.75
2018-03-02T08:02:01.571Z,51.26
2018-03-02T08:04:31.607Z,51.60
2018-03-02T08:07:01.454Z,52.04
2018-03-02T08:09:31.983Z,51.57
2018-03-02T08:12:01.091Z,51.72
2018-03-02T08:14:30.721Z,51.53
2018-03-02T08:16:59.803Z,52.21
2018-03-02T08:19:28.898Z,51.19
2018-03-02T08:21:58.799Z,51.61
2018-03-02T08:24:27.888Z,51.74
2018-03-02T08:26:57.180Z,51.55
2018-03-02T08:29:27.146Z,52.04
2018-03-02T08:31:59.087Z,51.82
2018-03-02T08:34:28.342Z,52.10
2018-03-02T08:36:57.826Z,51.65
2018-03-02T08:39:27.098Z,52.14
2018-03-02T08:41:57.328Z,52.08
2018-03-02T08:44:26.834Z,52.38
2018-03-02T08:46:57.568Z,54.31
2018-03-02T08:49:27.872Z,52.63
2018-03-02T08:51:57.718Z,52.32
2018-03-02T08:54:27.199Z,52.59
2018-03-02T08:56:56.282Z,52.91
2018-03-02T08:59:25.346Z,51.80
2018-03-02T09:01:55.306Z,53.14
2018-03-02T09:04:25.121Z,52.85
2018-03-02T09:06:54.475Z,52.24
2018-03-02T09:09:24.688Z,52.00
2018-03-02T09:11:53.974Z,52.34
2018-03-02T09:14:23.809Z,51.82
2018-03-02T09:16:53.005Z,52.28
2018-03-02T09:19:22.719Z,51.43
2018-03-02T09:21:53.498Z,52.39
2018-03-02T09:24:23.355Z,51.80
2018-03-02T09:26:53.748Z,51.41
2018-03-02T09:29:23.351Z,51.71
2018-03-02T09:31:55.107Z,51.56
2018-03-02T09:34:25.290Z,50.95
2018-03-02T09:36:55.234Z,52.20
2018-03-02T09:39:24.604Z,51.05
2018-03-02T09:41:54.415Z,51.22
2018-03-02T09:44:23.728Z,50.91
2018-03-02T09:46:52.807Z,51.03
2018-03-02T09:49:22.625Z,51.47
2018-03-02T09:51:52.993Z,51.20
2018-03-02T09:54:23.293Z,50.46
2018-03-02T09:56:53.096Z,50.02
2018-03-02T09:59:23.370Z,49.66
2018-03-02T10:01:53.885Z,50.45
2018-03-02T10:04:23.421Z,49.34
2018-03-02T10:06:52.599Z,49.58
2018-03-02T10:09:21.696Z,49.65
2018-03-02T10:11:51.283Z,49.56
2018-03-02T10:14:21.052Z,48.75
2018-03-02T10:16:50.523Z,48.55
2018-03-02T10:19:21.395Z,49.35
2018-03-02T10:21:52.461Z,48.51
2018-03-02T10:24:21.855Z,48.51
2018-03-02T10:26:51.296Z,48.98
2018-03-02T10:29:21.915Z,48.83
2018-03-02T10:31:51.344Z,48.34
2018-03-02T10:34:22.467Z,48.96
2018-03-02T10:36:52.985Z,48.95
2018-03-02T10:39:22.670Z,48.66
2018-03-02T10:41:52.318Z,48.14
2018-03-02T10:44:21.467Z,48.40
2018-03-02T10:46:50.701Z,48.95
2018-03-02T10:49:19.791Z,48.22
2018-03-02T10:51:48.875Z,47.80
2018-03-02T10:54:17.948Z,47.52
2018-03-02T10:56:47.315Z,47.38
2018-03-02T10:59:16.390Z,47.73
2018-03-02T11:01:51.079Z,47.40
2018-03-02T11:04:20.166Z,47.17
2018-03-02T11:06:49.616Z,47.53
2018-03-02T11:09:18.703Z,47.56
2018-03-02T11:11:47.778Z,47.51
2018-03-02T11:14:16.853Z,47.48
2018-03-02T11:16:45.927Z,46.92
2018-03-02T11:19:15.003Z,47.13
2018-03-02T11:21:44.319Z,47.52
2018-03-02T11:24:13.805Z,47.66
2018-03-02T11:26:43.463Z,48.08
2018-03-02T11:29:12.804Z,48.11
2018-03-02T11:31:42.524Z,48.18
2018-03-02T11:34:11.615Z,48.03
2018-03-02T11:36:40.898Z,48.19
2018-03-02T11:39:10.223Z,48.00
2018-03-02T11:41:41.837Z,48.44
2018-03-02T11:44:12.173Z,48.51
2018-03-02T11:46:42.096Z,48.52
2018-03-02T11:49:11.406Z,48.78
2018-03-02T11:51:40.565Z,49.33
2018-03-02T11:54:09.747Z,49.10
2018-03-02T11:56:40.218Z,48.77
2018-03-02T11:59:09.505Z,48.08
2018-03-02T12:01:38.646Z,48.02
2018-03-02T12:04:08.765Z,47.89
2018-03-02T12:06:37.866Z,47.58
2018-03-02T12:09:07.671Z,47.79
2018-03-02T12:11:37.520Z,48.03
2018-03-02T12:14:07.867Z,48.21
2018-03-02T12:16:38.186Z,47.99
2018-03-02T12:19:07.346Z,48.01
2018-03-02T12:21:38.363Z,47.61
2018-03-02T12:24:07.499Z,47.31
2018-03-02T12:26:36.805Z,46.74
2018-03-02T12:29:05.913Z,46.56
2018-03-02T12:31:34.996Z,45.90
2018-03-02T12:34:05.835Z,45.88
2018-03-02T12:36:34.977Z,45.29
2018-03-02T12:39:04.351Z,45.77
2018-03-02T12:41:34.111Z,45.80
2018-03-02T12:44:04.601Z,46.12
2018-03-02T12:46:33.693Z,46.14
2018-03-02T12:49:02.760Z,46.43
2018-03-02T12:51:31.950Z,47.13
2018-03-02T12:54:02.060Z,47.75
2018-03-02T12:56:31.794Z,48.50
2018-03-02T12:59:01.475Z,48.95
2018-03-02T13:01:30.551Z,49.40
2018-03-02T13:04:00.812Z,50.07
2018-03-02T13:06:31.290Z,50.47
2018-03-02T13:09:01.615Z,50.50
2018-03-02T13:11:30.807Z,50.96
2018-03-02T13:14:00.952Z,51.33
2018-03-02T13:16:31.163Z,52.24
2018-03-02T13:19:02.010Z,52.19
2018-03-02T13:21:32.192Z,52.32
2018-03-02T13:24:02.088Z,52.92
2018-03-02T13:26:43.542Z,53.74
2018-03-02T13:29:13.224Z,53.74
2018-03-02T13:31:42.346Z,54.05
2018-03-02T13:34:25.447Z,54.59
2018-03-02T13:36:54.526Z,54.59
2018-03-02T13:39:35.593Z,56.27
2018-03-02T13:42:13.053Z,55.23
2018-03-02T13:44:42.758Z,55.48
2018-03-02T13:47:12.761Z,54.84
2018-03-02T13:49:54.430Z,54.19
2018-03-02T13:52:23.547Z,54.56
2018-03-02T13:54:53.488Z,54.99
2018-03-02T13:57:36.527Z,53.71
2018-03-02T14:00:07.914Z,54.42
2018-03-02T14:02:49.478Z,54.34
2018-03-02T14:05:18.929Z,53.76
2018-03-02T14:07:48.612Z,53.33
2018-03-02T14:10:18.895Z,53.03
2018-03-02T14:12:47.968Z,52.26
2018-03-02T14:15:17.477Z,51.56
2018-03-02T14:17:47.970Z,51.54
2018-03-02T14:20:18.480Z,51.57
2018-03-02T14:22:47.916Z,52.02
2018-03-02T14:25:17.498Z,51.35
2018-03-02T14:27:46.737Z,51.91
2018-03-02T14:30:16.225Z,51.99
2018-03-02T14:32:46.374Z,52.61
2018-03-02T14:35:16.220Z,53.34
2018-03-02T14:37:45.595Z,54.30
2018-03-02T14:40:15.175Z,54.32
2018-03-02T14:42:45.296Z,54.42
2018-03-02T14:45:15.782Z,54.87
2018-03-02T14:47:46.906Z,54.67
2018-03-02T14:50:16.118Z,54.62
2018-03-02T14:52:45.726Z,54.55
2018-03-02T14:55:15.906Z,54.86
2018-03-02T14:57:45.640Z,54.85
2018-03-02T15:00:14.867Z,54.09
2018-03-02T15:02:44.067Z,54.38
2018-03-02T15:05:13.583Z,54.85
2018-03-02T15:07:43.313Z,55.13
2018-03-02T15:10:13.287Z,55.92
2018-03-02T15:12:42.552Z,56.09
2018-03-02T15:15:12.408Z,56.14
2018-03-02T15:17:42.065Z,55.46
2018-03-02T15:20:11.662Z,55.97
2018-03-02T15:22:41.296Z,56.03
2018-03-02T15:25:11.501Z,56.18
2018-03-02T15:27:40.599Z,55.97
2018-03-02T15:30:10.429Z,56.00
2018-03-02T15:32:39.512Z,56.42
2018-03-02T15:35:08.588Z,56.38
2018-03-02T15:37:38.017Z,56.25
2018-03-02T15:40:07.130Z,56.08
2018-03-02T15:42:36.703Z,56.09
2018-03-02T15:45:05.886Z,56.47
2018-03-02T15:47:34.970Z,56.54
2018-03-02T15:50:04.082Z,56.56
2018-03-02T15:52:33.282Z,57.22
2018-03-02T15:55:02.407Z,57.02
2018-03-02T15:57:32.847Z,57.48
2018-03-02T16:00:02.780Z,57.64
2018-03-02T16:02:32.064Z,57.62
2018-03-02T16:05:01.684Z,57.57
2018-03-02T16:07:31.322Z,57.59
2018-03-02T16:10:00.773Z,57.78
2018-03-02T16:12:29.875Z,57.79
2018-03-02T16:14:59.500Z,57.81
2018-03-02T16:17:28.968Z,58.06
2018-03-02T16:19:58.358Z,58.05
2018-03-02T16:22:27.767Z,58.13
2018-03-02T16:24:56.911Z,57.68
2018-03-02T16:27:25.990Z,57.47
2018-03-02T16:29:55.416Z,57.91
2018-03-02T16:32:24.732Z,57.91
2018-03-02T16:34:54.159Z,58.64
2018-03-02T16:37:24.393Z,58.25
2018-03-02T16:39:53.587Z,57.84
2018-03-02T16:42:22.711Z,58.39
2018-03-02T16:44:53.674Z,57.94
2018-03-02T16:47:23.071Z,58.00
2018-03-02T16:49:52.522Z,58.32
2018-03-02T16:52:22.637Z,58.42
2018-03-02T16:54:52.690Z,58.64
2018-03-02T16:57:21.937Z,58.28
2018-03-02T16:59:51.791Z,58.18
2018-03-02T17:02:21.749Z,58.72
2018-03-02T17:04:50.942Z,59.27
2018-03-02T17:07:20.016Z,58.11
2018-03-02T17:09:49.095Z,58.79
2018-03-02T17:12:18.747Z,58.54
2018-03-02T17:14:48.400Z,58.48
2018-03-02T17:17:17.578Z,58.99
2018-03-02T17:19:47.398Z,58.53
2018-03-02T17:22:16.490Z,58.51
2018-03-02T17:24:45.863Z,58.70
2018-03-02T17:27:15.606Z,58.69
2018-03-02T17:29:44.805Z,58.70
2018-03-02T17:32:14.162Z,58.86
2018-03-02T17:34:43.614Z,59.06
2018-03-02T17:37:12.699Z,59.48
2018-03-02T17:39:41.910Z,59.32
2018-03-02T17:42:11.678Z,59.35
2018-03-02T17:44:40.886Z,59.45
2018-03-02T17:47:10.183Z,59.07
2018-03-02T17:49:39.595Z,59.31
2018-03-02T17:52:08.686Z,59.22
2018-03-02T17:54:37.763Z,58.97
2018-03-02T17:57:07.195Z,58.95
2018-03-02T17:59:36.271Z,59.18
2018-03-02T18:02:05.599Z,59.28
2018-03-02T18:04:34.750Z,59.05
2018-03-02T18:07:04.332Z,58.97
2018-03-02T18:09:33.846Z,58.68
2018-03-02T18:12:03.305Z,58.63
2018-03-02T18:14:32.993Z,58.78
2018-03-02T18:17:02.212Z,58.89
2018-03-02T18:19:31.614Z,59.49
2018-03-02T18:22:00.691Z,59.69
2018-03-02T18:24:30.170Z,60.27
2018-03-02T18:26:59.255Z,60.66
2018-03-02T18:29:28.875Z,60.46
2018-03-02T18:31:57.947Z,60.72
2018-03-02T18:34:27.144Z,60.48
2018-03-02T18:36:56.218Z,59.99
2018-03-02T18:39:25.526Z,59.94
2018-03-02T18:41:54.584Z,59.78
2018-03-02T18:44:24.701Z,59.64
2018-03-02T18:46:54.015Z,59.11
2018-03-02T18:49:24.012Z,59.21
2018-03-02T18:54:47.501Z,59.29
2018-03-02T18:57:16.678Z,60.00
2018-03-02T18:59:46.100Z,59.35
2018-03-02T19:02:15.207Z,59.93
2018-03-02T19:04:44.305Z,60.29
2018-03-02T19:07:13.653Z,60.34
2018-03-02T19:09:42.772Z,60.67
2018-03-02T19:12:11.970Z,60.80
2018-03-02T19:14:41.051Z,60.45
2018-03-02T19:17:10.297Z,60.40
2018-03-02T19:19:39.703Z,60.43
2018-03-02T19:22:08.801Z,60.26
2018-03-02T19:24:37.911Z,60.63
2018-03-02T19:27:07.016Z,60.46
2018-03-02T19:29:37.467Z,60.13
2018-03-02T19:32:06.876Z,60.23
2018-03-02T19:34:36.379Z,60.34
2018-03-02T19:37:05.711Z,60.34
2018-03-02T19:39:34.817Z,60.83
2018-03-02T19:42:03.894Z,60.58
2018-03-02T19:44:32.971Z,60.30
2018-03-02T19:47:02.412Z,60.88
2018-03-02T19:49:31.521Z,60.66
2018-03-02T19:52:00.610Z,60.39
2018-03-02T19:54:29.679Z,60.60
2018-03-02T19:56:59.351Z,59.90
2018-03-02T19:59:28.923Z,60.22
2018-03-02T20:01:57.991Z,60.18
2018-03-02T20:04:27.067Z,60.85
2018-03-02T20:06:56.761Z,60.62
2018-03-02T20:09:25.847Z,60.83
2018-03-02T20:11:54.919Z,60.94
2018-03-02T20:14:25.403Z,61.07
2018-03-02T20:16:54.623Z,60.96
2018-03-02T20:19:24.030Z,60.73
2018-03-02T20:21:53.117Z,61.22
2018-03-02T20:24:22.198Z,60.78
2018-03-02T20:26:51.535Z,60.70
2018-03-02T20:29:20.608Z,60.60
2018-03-02T20:31:49.689Z,60.64
2018-03-02T20:34:18.774Z,60.79
2018-03-02T20:36:47.844Z,60.94
2018-03-02T20:39:16.922Z,60.84
2018-03-02T20:41:46.063Z,61.02
2018-03-02T20:44:15.135Z,60.98
2018-03-02T20:46:45.119Z,60.99
2018-03-02T20:49:14.460Z,61.52
2018-03-02T20:51:43.563Z,61.65
2018-03-02T20:54:12.638Z,62.00
2018-03-02T20:56:41.712Z,62.09
2018-03-02T20:59:10.792Z,62.27
2018-03-02T21:01:39.948Z,61.79
2018-03-02T21:04:09.023Z,61.79
2018-03-02T21:06:38.131Z,61.80
2018-03-02T21:09:07.235Z,61.77
2018-03-02T21:11:36.616Z,61.65
2018-03-02T21:14:06.352Z,61.58
2018-03-02T21:16:35.459Z,61.68
2018-03-02T21:19:04.542Z,61.43
2018-03-02T21:21:34.051Z,61.82
2018-03-02T21:24:03.137Z,61.77
2018-03-02T21:26:32.552Z,61.77
2018-03-02T21:29:02.044Z,62.35
2018-03-02T21:31:31.124Z,62.53
2018-03-02T21:34:00.508Z,62.11
2018-03-02T21:36:30.263Z,62.39
2018-03-02T21:38:59.956Z,62.34
2018-03-02T21:41:29.035Z,62.73
2018-03-02T21:43:58.109Z,62.86
2018-03-02T21:46:27.263Z,63.01
2018-03-02T21:48:57.779Z,63.28
2018-03-02T21:51:28.127Z,63.66
2018-03-02T21:53:57.283Z,63.89
2018-03-02T21:56:26.451Z,64.26
2018-03-02T21:58:55.528Z,64.53
2018-03-02T22:01:27.369Z,64.40
2018-03-02T22:03:56.515Z,64.49
2018-03-02T22:06:25.740Z,64.01
2018-03-02T22:08:55.798Z,63.95
2018-03-02T22:11:25.149Z,63.85
2018-03-02T22:13:54.364Z,63.81
2018-03-02T22:16:23.519Z,63.84
2018-03-02T22:18:52.669Z,63.61
2018-03-02T22:21:21.861Z,63.80
2018-03-02T22:23:51.293Z,63.95
2018-03-02T22:26:20.386Z,63.66
2018-03-02T22:28:51.178Z,63.86
2018-03-02T22:31:20.295Z,63.49
2018-03-02T22:33:50.039Z,63.58
2018-03-02T22:36:19.111Z,63.35
2018-03-02T22:38:48.264Z,63.40
2018-03-02T22:41:17.997Z,63.19
2018-03-02T22:43:47.110Z,63.32
2018-03-02T22:46:16.191Z,63.39
2018-03-02T22:48:46.312Z,63.48
2018-03-02T22:51:15.379Z,63.03
2018-03-02T22:53:44.535Z,63.02
2018-03-02T22:56:13.883Z,63.08
2018-03-02T22:58:43.390Z,62.79
2018-03-02T23:01:13.055Z,62.80
2018-03-02T23:03:42.259Z,63.18
2018-03-02T23:06:11.580Z,63.39
2018-03-02T23:08:40.992Z,63.78
2018-03-02T23:11:10.818Z,64.09
2018-03-02T23:13:40.461Z,64.40
2018-03-02T23:16:09.526Z,64.69
2018-03-02T23:18:38.906Z,65.07
2018-03-02T23:21:09.257Z,65.34
2018-03-02T23:23:38.437Z,65.71
2018-03-02T23:26:07.998Z,66.03
2018-03-02T23:28:38.119Z,66.01
2018-03-02T23:31:08.415Z,66.48
2018-03-02T23:33:38.417Z,66.79
2018-03-02T23:36:07.612Z,66.84
2018-03-02T23:38:37.009Z,67.27
2018-03-02T23:41:07.007Z,67.09
2018-03-02T23:43:37.297Z,67.16
2018-03-02T23:46:06.577Z,67.41
2018-03-02T23:48:37.184Z,67.29
2018-03-02T23:51:06.934Z,67.56
2018-03-02T23:53:36.150Z,67.53
2018-03-02T23:56:07.057Z,67.80
2018-03-02T23:58:37.003Z,67.87
